sensor_id;sensor_type;location;lat;lon;timestamp;P1;durP1;ratioP1;P2;durP2;ratioP2
70592;SDS011;58294;42.988;20.338;2023-05-07T00:00:37;16.48;;;13.13;;
70592;SDS011;58294;42.988;20.338;2023-05-07T00:03:02;10.63;;;9.38;;
70592;SDS011;58294;42.988;20.338;2023-05-07T00:05:28;10.13;;;9.07;;
70592;SDS011;58294;42.988;20.338;2023-05-07T00:07:54;9.63;;;8.63;;
70592;SDS011;58294;42.988;20.338;2023-05-07T00:10:20;10.07;;;8.10;;
70592;SDS011;58294;42.988;20.338;2023-05-07T00:12:46;11.27;;;8.30;;
70592;SDS011;58294;42.988;20.338;2023-05-07T00:15:12;12.57;;;8.75;;
70592;SDS011;58294;42.988;20.338;2023-05-07T00:17:38;11.05;;;7.95;;
70592;SDS011;58294;42.988;20.338;2023-05-07T00:20:04;11.70;;;8.60;;
70592;SDS011;58294;42.988;20.338;2023-05-07T00:22:30;14.70;;;9.32;;
70592;SDS011;58294;42.988;20.338;2023-05-07T00:24:57;11.93;;;9.82;;
70592;SDS011;58294;42.988;20.338;2023-05-07T00:27:24;12.07;;;9.68;;
70592;SDS011;58294;42.988;20.338;2023-05-07T00:29:50;15.88;;;11.43;;
70592;SDS011;58294;42.988;20.338;2023-05-07T00:32:16;16.33;;;12.60;;
70592;SDS011;58294;42.988;20.338;2023-05-07T00:34:42;14.32;;;11.15;;
70592;SDS011;58294;42.988;20.338;2023-05-07T00:37:08;12.25;;;9.40;;
70592;SDS011;58294;42.988;20.338;2023-05-07T00:39:34;21.58;;;14.07;;
70592;SDS011;58294;42.988;20.338;2023-05-07T00:42:01;17.17;;;12.18;;
70592;SDS011;58294;42.988;20.338;2023-05-07T00:44:27;20.17;;;11.50;;
70592;SDS011;58294;42.988;20.338;2023-05-07T00:46:55;11.75;;;8.95;;
70592;SDS011;58294;42.988;20.338;2023-05-07T00:49:22;12.95;;;8.50;;
70592;SDS011;58294;42.988;20.338;2023-05-07T00:51:58;10.82;;;8.35;;
70592;SDS011;58294;42.988;20.338;2023-05-07T00:54:25;11.25;;;7.93;;
70592;SDS011;58294;42.988;20.338;2023-05-07T00:56:51;11.45;;;8.65;;
70592;SDS011;58294;42.988;20.338;2023-05-07T00:59:17;10.15;;;8.25;;
70592;SDS011;58294;42.988;20.338;2023-05-07T01:01:43;8.63;;;7.72;;
70592;SDS011;58294;42.988;20.338;2023-05-07T01:04:10;11.23;;;9.05;;
70592;SDS011;58294;42.988;20.338;2023-05-07T01:06:36;13.52;;;9.63;;
70592;SDS011;58294;42.988;20.338;2023-05-07T01:09:02;14.10;;;9.40;;
70592;SDS011;58294;42.988;20.338;2023-05-07T01:11:29;10.52;;;8.10;;
70592;SDS011;58294;42.988;20.338;2023-05-07T01:13:55;11.45;;;7.72;;
70592;SDS011;58294;42.988;20.338;2023-05-07T01:16:24;9.98;;;7.90;;
70592;SDS011;58294;42.988;20.338;2023-05-07T01:18:50;12.13;;;7.93;;
70592;SDS011;58294;42.988;20.338;2023-05-07T01:21:16;9.60;;;7.93;;
70592;SDS011;58294;42.988;20.338;2023-05-07T01:23:43;11.07;;;7.78;;
70592;SDS011;58294;42.988;20.338;2023-05-07T01:26:10;11.07;;;9.18;;
70592;SDS011;58294;42.988;20.338;2023-05-07T01:28:36;14.88;;;11.02;;
70592;SDS011;58294;42.988;20.338;2023-05-07T01:31:02;13.25;;;8.50;;
70592;SDS011;58294;42.988;20.338;2023-05-07T01:33:29;9.20;;;7.97;;
70592;SDS011;58294;42.988;20.338;2023-05-07T01:35:58;9.00;;;8.05;;
70592;SDS011;58294;42.988;20.338;2023-05-07T01:38:29;10.50;;;8.30;;
70592;SDS011;58294;42.988;20.338;2023-05-07T01:40:55;9.95;;;8.02;;
70592;SDS011;58294;42.988;20.338;2023-05-07T01:43:22;9.70;;;7.57;;
70592;SDS011;58294;42.988;20.338;2023-05-07T01:45:48;10.10;;;8.38;;
70592;SDS011;58294;42.988;20.338;2023-05-07T01:48:15;11.70;;;8.35;;
70592;SDS011;58294;42.988;20.338;2023-05-07T01:50:41;12.63;;;8.38;;
70592;SDS011;58294;42.988;20.338;2023-05-07T01:53:08;9.52;;;8.00;;
70592;SDS011;58294;42.988;20.338;2023-05-07T01:55:34;9.38;;;8.13;;
70592;SDS011;58294;42.988;20.338;2023-05-07T01:58:01;11.75;;;8.05;;
70592;SDS011;58294;42.988;20.338;2023-05-07T02:00:28;9.98;;;8.32;;
70592;SDS011;58294;42.988;20.338;2023-05-07T02:02:54;12.25;;;8.13;;
70592;SDS011;58294;42.988;20.338;2023-05-07T02:05:20;10.95;;;9.15;;
70592;SDS011;58294;42.988;20.338;2023-05-07T02:07:46;11.23;;;8.48;;
70592;SDS011;58294;42.988;20.338;2023-05-07T02:10:11;12.32;;;9.00;;
70592;SDS011;58294;42.988;20.338;2023-05-07T02:12:37;11.55;;;7.90;;
70592;SDS011;58294;42.988;20.338;2023-05-07T02:15:03;10.88;;;7.75;;
70592;SDS011;58294;42.988;20.338;2023-05-07T02:17:30;15.48;;;9.75;;
70592;SDS011;58294;42.988;20.338;2023-05-07T02:19:58;17.58;;;11.93;;
70592;SDS011;58294;42.988;20.338;2023-05-07T02:22:24;13.07;;;10.82;;
70592;SDS011;58294;42.988;20.338;2023-05-07T02:24:50;10.45;;;9.40;;
70592;SDS011;58294;42.988;20.338;2023-05-07T02:27:16;10.10;;;8.90;;
70592;SDS011;58294;42.988;20.338;2023-05-07T02:29:42;12.82;;;9.35;;
70592;SDS011;58294;42.988;20.338;2023-05-07T02:32:08;12.68;;;8.73;;
70592;SDS011;58294;42.988;20.338;2023-05-07T02:34:34;14.05;;;8.80;;
70592;SDS011;58294;42.988;20.338;2023-05-07T02:36:59;11.05;;;9.05;;
70592;SDS011;58294;42.988;20.338;2023-05-07T02:39:25;11.35;;;8.70;;
70592;SDS011;58294;42.988;20.338;2023-05-07T02:41:51;11.48;;;8.68;;
70592;SDS011;58294;42.988;20.338;2023-05-07T02:44:17;9.73;;;8.48;;
70592;SDS011;58294;42.988;20.338;2023-05-07T02:46:42;10.30;;;8.35;;
70592;SDS011;58294;42.988;20.338;2023-05-07T02:49:08;11.65;;;8.80;;
70592;SDS011;58294;42.988;20.338;2023-05-07T02:51:34;14.07;;;9.25;;
70592;SDS011;58294;42.988;20.338;2023-05-07T02:54:00;9.77;;;8.75;;
70592;SDS011;58294;42.988;20.338;2023-05-07T02:56:26;11.27;;;8.82;;
70592;SDS011;58294;42.988;20.338;2023-05-07T02:58:52;15.15;;;9.55;;
70592;SDS011;58294;42.988;20.338;2023-05-07T03:01:18;13.40;;;9.25;;
70592;SDS011;58294;42.988;20.338;2023-05-07T03:03:43;11.98;;;10.35;;
70592;SDS011;58294;42.988;20.338;2023-05-07T03:06:09;11.90;;;9.32;;
70592;SDS011;58294;42.988;20.338;2023-05-07T03:08:35;9.38;;;8.38;;
70592;SDS011;58294;42.988;20.338;2023-05-07T03:11:01;12.93;;;10.32;;
70592;SDS011;58294;42.988;20.338;2023-05-07T03:13:27;37.47;;;33.78;;
70592;SDS011;58294;42.988;20.338;2023-05-07T03:15:53;16.40;;;9.80;;
70592;SDS011;58294;42.988;20.338;2023-05-07T03:18:19;10.73;;;8.48;;
70592;SDS011;58294;42.988;20.338;2023-05-07T03:20:45;10.32;;;8.75;;
70592;SDS011;58294;42.988;20.338;2023-05-07T03:23:11;12.15;;;8.77;;
70592;SDS011;58294;42.988;20.338;2023-05-07T03:25:37;9.45;;;8.27;;
70592;SDS011;58294;42.988;20.338;2023-05-07T03:28:02;11.38;;;9.13;;
70592;SDS011;58294;42.988;20.338;2023-05-07T03:30:28;9.40;;;8.27;;
70592;SDS011;58294;42.988;20.338;2023-05-07T03:32:54;13.38;;;8.95;;
70592;SDS011;58294;42.988;20.338;2023-05-07T03:35:20;13.20;;;8.52;;
70592;SDS011;58294;42.988;20.338;2023-05-07T03:37:46;13.57;;;9.80;;
70592;SDS011;58294;42.988;20.338;2023-05-07T03:40:11;13.15;;;10.38;;
70592;SDS011;58294;42.988;20.338;2023-05-07T03:42:38;15.57;;;11.20;;
70592;SDS011;58294;42.988;20.338;2023-05-07T03:45:03;15.15;;;10.82;;
70592;SDS011;58294;42.988;20.338;2023-05-07T03:47:30;12.10;;;9.93;;
70592;SDS011;58294;42.988;20.338;2023-05-07T03:49:56;10.75;;;9.02;;
70592;SDS011;58294;42.988;20.338;2023-05-07T03:52:21;11.70;;;9.18;;
70592;SDS011;58294;42.988;20.338;2023-05-07T03:54:51;13.18;;;8.90;;
70592;SDS011;58294;42.988;20.338;2023-05-07T03:57:20;12.50;;;8.93;;
70592;SDS011;58294;42.988;20.338;2023-05-07T03:59:45;11.77;;;9.02;;
70592;SDS011;58294;42.988;20.338;2023-05-07T04:02:11;10.77;;;8.60;;
70592;SDS011;58294;42.988;20.338;2023-05-07T04:04:37;13.13;;;9.50;;
70592;SDS011;58294;42.988;20.338;2023-05-07T04:07:03;10.63;;;8.40;;
70592;SDS011;58294;42.988;20.338;2023-05-07T04:09:29;10.15;;;9.05;;
70592;SDS011;58294;42.988;20.338;2023-05-07T04:11:55;12.45;;;8.68;;
70592;SDS011;58294;42.988;20.338;2023-05-07T04:14:21;12.52;;;9.60;;
70592;SDS011;58294;42.988;20.338;2023-05-07T04:16:47;10.93;;;8.90;;
70592;SDS011;58294;42.988;20.338;2023-05-07T04:19:12;11.32;;;8.98;;
70592;SDS011;58294;42.988;20.338;2023-05-07T04:21:38;13.80;;;9.13;;
70592;SDS011;58294;42.988;20.338;2023-05-07T04:24:05;12.82;;;9.32;;
70592;SDS011;58294;42.988;20.338;2023-05-07T04:26:31;12.10;;;9.20;;
70592;SDS011;58294;42.988;20.338;2023-05-07T04:28:57;11.77;;;8.60;;
70592;SDS011;58294;42.988;20.338;2023-05-07T04:31:24;17.77;;;9.38;;
70592;SDS011;58294;42.988;20.338;2023-05-07T04:33:50;14.07;;;9.88;;
70592;SDS011;58294;42.988;20.338;2023-05-07T04:36:16;13.25;;;10.10;;
70592;SDS011;58294;42.988;20.338;2023-05-07T04:38:42;14.43;;;9.95;;
70592;SDS011;58294;42.988;20.338;2023-05-07T04:41:08;11.93;;;10.13;;
70592;SDS011;58294;42.988;20.338;2023-05-07T04:43:34;15.90;;;9.77;;
70592;SDS011;58294;42.988;20.338;2023-05-07T04:46:00;15.80;;;11.75;;
70592;SDS011;58294;42.988;20.338;2023-05-07T04:48:26;16.88;;;11.55;;
70592;SDS011;58294;42.988;20.338;2023-05-07T04:50:53;15.25;;;11.32;;
70592;SDS011;58294;42.988;20.338;2023-05-07T04:53:19;15.30;;;12.38;;
70592;SDS011;58294;42.988;20.338;2023-05-07T04:55:46;17.70;;;12.88;;
70592;SDS011;58294;42.988;20.338;2023-05-07T04:58:12;19.73;;;13.52;;
70592;SDS011;58294;42.988;20.338;2023-05-07T05:00:38;18.25;;;12.50;;
70592;SDS011;58294;42.988;20.338;2023-05-07T05:03:04;16.00;;;12.55;;
70592;SDS011;58294;42.988;20.338;2023-05-07T05:05:32;17.63;;;12.40;;
70592;SDS011;58294;42.988;20.338;2023-05-07T05:07:57;17.17;;;12.35;;
70592;SDS011;58294;42.988;20.338;2023-05-07T05:10:23;20.98;;;14.90;;
70592;SDS011;58294;42.988;20.338;2023-05-07T05:12:50;20.20;;;12.73;;
70592;SDS011;58294;42.988;20.338;2023-05-07T05:15:15;26.48;;;13.43;;
70592;SDS011;58294;42.988;20.338;2023-05-07T05:17:41;34.67;;;25.17;;
70592;SDS011;58294;42.988;20.338;2023-05-07T05:20:07;20.40;;;13.98;;
70592;SDS011;58294;42.988;20.338;2023-05-07T05:22:35;20.02;;;13.75;;
70592;SDS011;58294;42.988;20.338;2023-05-07T05:25:01;17.75;;;14.68;;
70592;SDS011;58294;42.988;20.338;2023-05-07T05:27:28;17.65;;;14.95;;
70592;SDS011;58294;42.988;20.338;2023-05-07T05:29:54;18.45;;;14.10;;
70592;SDS011;58294;42.988;20.338;2023-05-07T05:32:19;20.08;;;15.20;;
70592;SDS011;58294;42.988;20.338;2023-05-07T05:34:45;21.40;;;15.27;;
70592;SDS011;58294;42.988;20.338;2023-05-07T05:37:11;20.48;;;15.07;;
70592;SDS011;58294;42.988;20.338;2023-05-07T05:39:37;17.73;;;14.30;;
70592;SDS011;58294;42.988;20.338;2023-05-07T05:42:03;23.58;;;14.82;;
70592;SDS011;58294;42.988;20.338;2023-05-07T05:44:28;21.92;;;16.40;;
70592;SDS011;58294;42.988;20.338;2023-05-07T05:46:54;29.88;;;19.85;;
70592;SDS011;58294;42.988;20.338;2023-05-07T05:49:22;23.40;;;14.15;;
70592;SDS011;58294;42.988;20.338;2023-05-07T05:51:48;23.48;;;16.75;;
70592;SDS011;58294;42.988;20.338;2023-05-07T05:54:14;21.60;;;15.88;;
70592;SDS011;58294;42.988;20.338;2023-05-07T05:56:40;17.33;;;13.85;;
70592;SDS011;58294;42.988;20.338;2023-05-07T05:59:06;15.15;;;13.13;;
70592;SDS011;58294;42.988;20.338;2023-05-07T06:01:32;21.92;;;15.27;;
70592;SDS011;58294;42.988;20.338;2023-05-07T06:03:58;16.95;;;11.90;;
70592;SDS011;58294;42.988;20.338;2023-05-07T06:06:24;16.00;;;11.93;;
70592;SDS011;58294;42.988;20.338;2023-05-07T06:08:50;14.90;;;10.38;;
70592;SDS011;58294;42.988;20.338;2023-05-07T06:11:16;16.95;;;12.40;;
70592;SDS011;58294;42.988;20.338;2023-05-07T06:13:42;15.23;;;12.45;;
70592;SDS011;58294;42.988;20.338;2023-05-07T06:16:08;18.90;;;14.30;;
70592;SDS011;58294;42.988;20.338;2023-05-07T06:18:33;15.43;;;12.27;;
70592;SDS011;58294;42.988;20.338;2023-05-07T06:21:01;19.50;;;13.65;;
70592;SDS011;58294;42.988;20.338;2023-05-07T06:23:27;18.50;;;14.30;;
70592;SDS011;58294;42.988;20.338;2023-05-07T06:25:53;20.67;;;15.38;;
70592;SDS011;58294;42.988;20.338;2023-05-07T06:28:18;21.23;;;15.20;;
70592;SDS011;58294;42.988;20.338;2023-05-07T06:30:44;21.10;;;17.10;;
70592;SDS011;58294;42.988;20.338;2023-05-07T06:33:10;21.45;;;15.68;;
70592;SDS011;58294;42.988;20.338;2023-05-07T06:35:36;19.80;;;14.95;;
70592;SDS011;58294;42.988;20.338;2023-05-07T06:38:01;18.20;;;13.65;;
70592;SDS011;58294;42.988;20.338;2023-05-07T06:40:27;19.23;;;13.88;;
70592;SDS011;58294;42.988;20.338;2023-05-07T06:42:53;16.23;;;12.90;;
70592;SDS011;58294;42.988;20.338;2023-05-07T06:45:20;17.17;;;14.60;;
70592;SDS011;58294;42.988;20.338;2023-05-07T06:47:46;15.13;;;11.57;;
70592;SDS011;58294;42.988;20.338;2023-05-07T06:50:12;15.63;;;13.20;;
70592;SDS011;58294;42.988;20.338;2023-05-07T06:52:38;19.48;;;13.57;;
70592;SDS011;58294;42.988;20.338;2023-05-07T06:55:04;18.35;;;12.10;;
70592;SDS011;58294;42.988;20.338;2023-05-07T06:57:30;16.88;;;12.30;;
70592;SDS011;58294;42.988;20.338;2023-05-07T06:59:56;13.07;;;10.38;;
70592;SDS011;58294;42.988;20.338;2023-05-07T07:02:22;11.65;;;8.35;;
70592;SDS011;58294;42.988;20.338;2023-05-07T07:04:47;8.18;;;7.18;;
70592;SDS011;58294;42.988;20.338;2023-05-07T07:07:13;8.40;;;7.32;;
70592;SDS011;58294;42.988;20.338;2023-05-07T07:09:39;11.30;;;9.00;;
70592;SDS011;58294;42.988;20.338;2023-05-07T07:12:05;17.45;;;11.40;;
70592;SDS011;58294;42.988;20.338;2023-05-07T07:14:30;11.73;;;9.82;;
70592;SDS011;58294;42.988;20.338;2023-05-07T07:16:56;11.23;;;9.32;;
70592;SDS011;58294;42.988;20.338;2023-05-07T07:19:22;10.60;;;9.45;;
70592;SDS011;58294;42.988;20.338;2023-05-07T07:21:48;11.93;;;7.90;;
70592;SDS011;58294;42.988;20.338;2023-05-07T07:24:14;12.80;;;8.38;;
70592;SDS011;58294;42.988;20.338;2023-05-07T07:26:44;12.63;;;10.00;;
70592;SDS011;58294;42.988;20.338;2023-05-07T07:29:10;12.18;;;8.77;;
70592;SDS011;58294;42.988;20.338;2023-05-07T07:31:36;9.55;;;8.60;;
70592;SDS011;58294;42.988;20.338;2023-05-07T07:34:02;12.75;;;10.45;;
70592;SDS011;58294;42.988;20.338;2023-05-07T07:36:27;11.57;;;8.95;;
70592;SDS011;58294;42.988;20.338;2023-05-07T07:38:53;13.95;;;8.13;;
70592;SDS011;58294;42.988;20.338;2023-05-07T07:41:19;9.45;;;8.00;;
70592;SDS011;58294;42.988;20.338;2023-05-07T07:43:45;13.35;;;7.10;;
70592;SDS011;58294;42.988;20.338;2023-05-07T07:46:11;9.00;;;7.70;;
70592;SDS011;58294;42.988;20.338;2023-05-07T07:48:37;12.23;;;8.52;;
70592;SDS011;58294;42.988;20.338;2023-05-07T07:51:03;9.90;;;8.75;;
70592;SDS011;58294;42.988;20.338;2023-05-07T07:53:29;10.98;;;8.10;;
70592;SDS011;58294;42.988;20.338;2023-05-07T07:55:55;9.27;;;8.20;;
70592;SDS011;58294;42.988;20.338;2023-05-07T07:58:21;8.60;;;7.78;;
70592;SDS011;58294;42.988;20.338;2023-05-07T08:00:47;8.65;;;7.80;;
70592;SDS011;58294;42.988;20.338;2023-05-07T08:03:13;9.52;;;7.65;;
70592;SDS011;58294;42.988;20.338;2023-05-07T08:05:41;8.85;;;6.75;;
70592;SDS011;58294;42.988;20.338;2023-05-07T08:08:07;8.68;;;6.63;;
70592;SDS011;58294;42.988;20.338;2023-05-07T08:10:33;7.55;;;6.38;;
70592;SDS011;58294;42.988;20.338;2023-05-07T08:13:00;10.25;;;6.50;;
70592;SDS011;58294;42.988;20.338;2023-05-07T08:15:26;7.45;;;6.38;;
70592;SDS011;58294;42.988;20.338;2023-05-07T08:17:52;7.65;;;6.40;;
70592;SDS011;58294;42.988;20.338;2023-05-07T08:20:18;10.60;;;6.72;;
70592;SDS011;58294;42.988;20.338;2023-05-07T08:22:44;7.60;;;6.72;;
70592;SDS011;58294;42.988;20.338;2023-05-07T08:25:10;23.50;;;8.73;;
70592;SDS011;58294;42.988;20.338;2023-05-07T08:27:36;7.85;;;6.43;;
70592;SDS011;58294;42.988;20.338;2023-05-07T08:30:02;7.72;;;6.70;;
70592;SDS011;58294;42.988;20.338;2023-05-07T08:32:28;6.57;;;5.97;;
70592;SDS011;58294;42.988;20.338;2023-05-07T08:34:54;5.50;;;5.00;;
70592;SDS011;58294;42.988;20.338;2023-05-07T08:37:20;6.50;;;5.47;;
70592;SDS011;58294;42.988;20.338;2023-05-07T08:39:46;8.25;;;6.32;;
70592;SDS011;58294;42.988;20.338;2023-05-07T08:42:11;8.48;;;6.05;;
70592;SDS011;58294;42.988;20.338;2023-05-07T08:44:41;7.93;;;6.70;;
70592;SDS011;58294;42.988;20.338;2023-05-07T08:47:13;6.22;;;5.63;;
70592;SDS011;58294;42.988;20.338;2023-05-07T08:49:39;7.65;;;6.13;;
70592;SDS011;58294;42.988;20.338;2023-05-07T08:52:05;6.22;;;5.63;;
70592;SDS011;58294;42.988;20.338;2023-05-07T08:54:31;6.95;;;6.20;;
70592;SDS011;58294;42.988;20.338;2023-05-07T08:56:58;6.88;;;6.28;;
70592;SDS011;58294;42.988;20.338;2023-05-07T08:59:24;6.40;;;5.80;;
70592;SDS011;58294;42.988;20.338;2023-05-07T09:01:50;7.82;;;6.82;;
70592;SDS011;58294;42.988;20.338;2023-05-07T09:04:16;7.50;;;5.85;;
70592;SDS011;58294;42.988;20.338;2023-05-07T09:06:42;7.30;;;6.13;;
70592;SDS011;58294;42.988;20.338;2023-05-07T09:09:08;6.85;;;5.55;;
70592;SDS011;58294;42.988;20.338;2023-05-07T09:11:34;9.00;;;7.40;;
70592;SDS011;58294;42.988;20.338;2023-05-07T09:13:59;9.18;;;6.95;;
70592;SDS011;58294;42.988;20.338;2023-05-07T09:16:29;6.18;;;5.60;;
70592;SDS011;58294;42.988;20.338;2023-05-07T09:18:57;8.57;;;5.30;;
70592;SDS011;58294;42.988;20.338;2023-05-07T09:21:25;7.03;;;5.50;;
70592;SDS011;58294;42.988;20.338;2023-05-07T09:23:51;8.73;;;7.82;;
70592;SDS011;58294;42.988;20.338;2023-05-07T09:26:18;6.47;;;5.60;;
70592;SDS011;58294;42.988;20.338;2023-05-07T09:28:46;7.60;;;4.88;;
70592;SDS011;58294;42.988;20.338;2023-05-07T09:31:12;6.78;;;6.15;;
70592;SDS011;58294;42.988;20.338;2023-05-07T09:33:38;6.28;;;5.40;;
70592;SDS011;58294;42.988;20.338;2023-05-07T09:36:05;6.97;;;5.90;;
70592;SDS011;58294;42.988;20.338;2023-05-07T09:38:32;5.53;;;4.97;;
70592;SDS011;58294;42.988;20.338;2023-05-07T09:41:05;7.75;;;6.00;;
70592;SDS011;58294;42.988;20.338;2023-05-07T09:43:40;6.07;;;5.47;;
70592;SDS011;58294;42.988;20.338;2023-05-07T09:48:39;6.78;;;4.60;;
70592;SDS011;58294;42.988;20.338;2023-05-07T09:53:45;6.93;;;4.82;;
70592;SDS011;58294;42.988;20.338;2023-05-07T09:56:12;5.93;;;5.35;;
70592;SDS011;58294;42.988;20.338;2023-05-07T09:58:40;8.02;;;6.82;;
70592;SDS011;58294;42.988;20.338;2023-05-07T10:01:07;7.60;;;6.32;;
70592;SDS011;58294;42.988;20.338;2023-05-07T10:03:33;5.50;;;4.72;;
70592;SDS011;58294;42.988;20.338;2023-05-07T10:06:01;5.32;;;4.60;;
70592;SDS011;58294;42.988;20.338;2023-05-07T10:08:28;5.97;;;4.95;;
70592;SDS011;58294;42.988;20.338;2023-05-07T10:10:56;8.88;;;6.07;;
70592;SDS011;58294;42.988;20.338;2023-05-07T10:13:21;6.55;;;4.80;;
70592;SDS011;58294;42.988;20.338;2023-05-07T10:15:48;7.47;;;4.95;;
70592;SDS011;58294;42.988;20.338;2023-05-07T10:18:15;6.88;;;4.80;;
70592;SDS011;58294;42.988;20.338;2023-05-07T10:20:43;5.57;;;4.70;;
70592;SDS011;58294;42.988;20.338;2023-05-07T10:23:12;9.73;;;5.95;;
70592;SDS011;58294;42.988;20.338;2023-05-07T10:25:44;9.63;;;5.97;;
70592;SDS011;58294;42.988;20.338;2023-05-07T10:28:10;6.07;;;5.47;;
70592;SDS011;58294;42.988;20.338;2023-05-07T10:33:10;5.70;;;4.90;;
70592;SDS011;58294;42.988;20.338;2023-05-07T10:35:39;7.43;;;6.72;;
70592;SDS011;58294;42.988;20.338;2023-05-07T10:38:06;7.20;;;5.65;;
70592;SDS011;58294;42.988;20.338;2023-05-07T10:40:33;11.35;;;6.47;;
70592;SDS011;58294;42.988;20.338;2023-05-07T10:43:00;6.25;;;5.53;;
70592;SDS011;58294;42.988;20.338;2023-05-07T10:45:27;9.45;;;5.85;;
70592;SDS011;58294;42.988;20.338;2023-05-07T10:48:13;9.90;;;6.82;;
70592;SDS011;58294;42.988;20.338;2023-05-07T10:50:40;7.68;;;5.70;;
70592;SDS011;58294;42.988;20.338;2023-05-07T10:55:42;5.70;;;4.90;;
70592;SDS011;58294;42.988;20.338;2023-05-07T10:58:27;8.10;;;5.30;;
70592;SDS011;58294;42.988;20.338;2023-05-07T11:00:56;5.20;;;4.70;;
70592;SDS011;58294;42.988;20.338;2023-05-07T11:03:24;8.82;;;5.18;;
70592;SDS011;58294;42.988;20.338;2023-05-07T11:06:23;7.78;;;6.07;;
70592;SDS011;58294;42.988;20.338;2023-05-07T11:11:17;10.07;;;5.80;;
70592;SDS011;58294;42.988;20.338;2023-05-07T11:13:44;6.53;;;5.60;;
70592;SDS011;58294;42.988;20.338;2023-05-07T11:18:47;5.97;;;5.47;;
70592;SDS011;58294;42.988;20.338;2023-05-07T11:21:31;5.28;;;4.78;;
70592;SDS011;58294;42.988;20.338;2023-05-07T11:24:04;6.80;;;6.10;;
70592;SDS011;58294;42.988;20.338;2023-05-07T11:26:41;6.65;;;5.00;;
70592;SDS011;58294;42.988;20.338;2023-05-07T11:29:14;5.70;;;5.20;;
70592;SDS011;58294;42.988;20.338;2023-05-07T11:31:40;5.68;;;5.05;;
70592;SDS011;58294;42.988;20.338;2023-05-07T11:34:06;5.70;;;5.00;;
70592;SDS011;58294;42.988;20.338;2023-05-07T11:36:33;5.97;;;5.15;;
70592;SDS011;58294;42.988;20.338;2023-05-07T11:38:59;6.00;;;4.60;;
70592;SDS011;58294;42.988;20.338;2023-05-07T11:41:37;7.95;;;6.40;;
70592;SDS011;58294;42.988;20.338;2023-05-07T11:44:03;5.38;;;4.90;;
70592;SDS011;58294;42.988;20.338;2023-05-07T11:46:29;6.78;;;4.70;;
70592;SDS011;58294;42.988;20.338;2023-05-07T11:48:55;6.25;;;4.80;;
70592;SDS011;58294;42.988;20.338;2023-05-07T11:51:22;5.80;;;5.20;;
70592;SDS011;58294;42.988;20.338;2023-05-07T11:53:51;5.10;;;4.60;;
70592;SDS011;58294;42.988;20.338;2023-05-07T11:56:17;8.32;;;4.57;;
70592;SDS011;58294;42.988;20.338;2023-05-07T11:58:44;6.15;;;4.47;;
70592;SDS011;58294;42.988;20.338;2023-05-07T12:01:11;7.00;;;4.68;;
70592;SDS011;58294;42.988;20.338;2023-05-07T12:03:40;4.50;;;4.10;;
70592;SDS011;58294;42.988;20.338;2023-05-07T12:06:10;7.22;;;4.18;;
70592;SDS011;58294;42.988;20.338;2023-05-07T12:08:38;5.90;;;4.38;;
70592;SDS011;58294;42.988;20.338;2023-05-07T12:11:09;4.88;;;4.30;;
70592;SDS011;58294;42.988;20.338;2023-05-07T12:16:05;4.40;;;4.00;;
70592;SDS011;58294;42.988;20.338;2023-05-07T12:18:32;6.70;;;4.30;;
70592;SDS011;58294;42.988;20.338;2023-05-07T12:20:59;6.68;;;5.97;;
70592;SDS011;58294;42.988;20.338;2023-05-07T12:23:25;7.45;;;6.50;;
70592;SDS011;58294;42.988;20.338;2023-05-07T12:25:51;6.75;;;5.38;;
70592;SDS011;58294;42.988;20.338;2023-05-07T12:28:17;7.07;;;5.50;;
70592;SDS011;58294;42.988;20.338;2023-05-07T12:30:44;4.80;;;4.30;;
70592;SDS011;58294;42.988;20.338;2023-05-07T12:33:11;7.22;;;4.85;;
70592;SDS011;58294;42.988;20.338;2023-05-07T12:35:41;5.65;;;4.57;;
70592;SDS011;58294;42.988;20.338;2023-05-07T12:38:08;5.38;;;3.92;;
70592;SDS011;58294;42.988;20.338;2023-05-07T12:43:18;6.40;;;4.57;;
70592;SDS011;58294;42.988;20.338;2023-05-07T12:45:55;5.10;;;4.38;;
70592;SDS011;58294;42.988;20.338;2023-05-07T12:48:22;7.63;;;5.25;;
70592;SDS011;58294;42.988;20.338;2023-05-07T12:50:49;9.23;;;5.30;;
70592;SDS011;58294;42.988;20.338;2023-05-07T12:53:20;8.07;;;4.70;;
70592;SDS011;58294;42.988;20.338;2023-05-07T12:55:48;3.50;;;3.20;;
70592;SDS011;58294;42.988;20.338;2023-05-07T12:58:18;3.78;;;3.22;;
70592;SDS011;58294;42.988;20.338;2023-05-07T13:00:47;5.10;;;4.40;;
70592;SDS011;58294;42.988;20.338;2023-05-07T13:03:21;4.22;;;3.83;;
70592;SDS011;58294;42.988;20.338;2023-05-07T13:05:49;5.68;;;4.38;;
70592;SDS011;58294;42.988;20.338;2023-05-07T13:10:50;11.90;;;5.32;;
70592;SDS011;58294;42.988;20.338;2023-05-07T13:13:17;7.32;;;4.40;;
70592;SDS011;58294;42.988;20.338;2023-05-07T13:15:42;4.25;;;3.85;;
70592;SDS011;58294;42.988;20.338;2023-05-07T13:18:08;5.95;;;4.30;;
70592;SDS011;58294;42.988;20.338;2023-05-07T13:20:36;6.88;;;4.50;;
70592;SDS011;58294;42.988;20.338;2023-05-07T13:23:02;3.95;;;3.55;;
70592;SDS011;58294;42.988;20.338;2023-05-07T13:25:29;5.97;;;4.32;;
70592;SDS011;58294;42.988;20.338;2023-05-07T13:27:58;6.85;;;4.35;;
70592;SDS011;58294;42.988;20.338;2023-05-07T13:30:24;6.28;;;5.13;;
70592;SDS011;58294;42.988;20.338;2023-05-07T13:32:51;8.10;;;4.78;;
70592;SDS011;58294;42.988;20.338;2023-05-07T13:35:20;5.50;;;4.18;;
70592;SDS011;58294;42.988;20.338;2023-05-07T13:37:46;6.60;;;4.32;;
70592;SDS011;58294;42.988;20.338;2023-05-07T13:40:13;5.65;;;4.57;;
70592;SDS011;58294;42.988;20.338;2023-05-07T13:42:39;7.43;;;4.70;;
70592;SDS011;58294;42.988;20.338;2023-05-07T13:45:05;8.65;;;5.18;;
70592;SDS011;58294;42.988;20.338;2023-05-07T13:47:31;6.07;;;4.93;;
70592;SDS011;58294;42.988;20.338;2023-05-07T13:49:56;6.13;;;4.30;;
70592;SDS011;58294;42.988;20.338;2023-05-07T13:52:22;10.48;;;5.90;;
70592;SDS011;58294;42.988;20.338;2023-05-07T13:54:48;8.15;;;4.80;;
70592;SDS011;58294;42.988;20.338;2023-05-07T13:57:14;12.10;;;5.78;;
70592;SDS011;58294;42.988;20.338;2023-05-07T13:59:40;4.45;;;4.05;;
70592;SDS011;58294;42.988;20.338;2023-05-07T14:02:06;4.18;;;3.58;;
70592;SDS011;58294;42.988;20.338;2023-05-07T14:04:32;6.07;;;4.50;;
70592;SDS011;58294;42.988;20.338;2023-05-07T14:06:57;7.95;;;4.65;;
70592;SDS011;58294;42.988;20.338;2023-05-07T14:09:23;9.82;;;5.65;;
70592;SDS011;58294;42.988;20.338;2023-05-07T14:11:49;5.97;;;4.68;;
70592;SDS011;58294;42.988;20.338;2023-05-07T14:14:17;5.07;;;4.40;;
70592;SDS011;58294;42.988;20.338;2023-05-07T14:16:43;5.07;;;4.47;;
70592;SDS011;58294;42.988;20.338;2023-05-07T14:19:10;5.70;;;3.97;;
70592;SDS011;58294;42.988;20.338;2023-05-07T14:21:36;7.65;;;4.40;;
70592;SDS011;58294;42.988;20.338;2023-05-07T14:24:02;4.35;;;3.95;;
70592;SDS011;58294;42.988;20.338;2023-05-07T14:26:28;4.90;;;4.40;;
70592;SDS011;58294;42.988;20.338;2023-05-07T14:28:54;7.20;;;4.28;;
70592;SDS011;58294;42.988;20.338;2023-05-07T14:31:22;5.15;;;4.25;;
70592;SDS011;58294;42.988;20.338;2023-05-07T14:33:48;4.10;;;3.63;;
70592;SDS011;58294;42.988;20.338;2023-05-07T14:36:15;4.13;;;3.60;;
70592;SDS011;58294;42.988;20.338;2023-05-07T14:38:46;8.60;;;4.25;;
70592;SDS011;58294;42.988;20.338;2023-05-07T14:41:12;7.75;;;4.78;;
70592;SDS011;58294;42.988;20.338;2023-05-07T14:43:38;8.10;;;5.93;;
70592;SDS011;58294;42.988;20.338;2023-05-07T14:46:04;10.02;;;6.55;;